sensor_id;sensor_type;location;lat;lon;timestamp;P1;durP1;ratioP1;P2;durP2;ratioP2
24173;SDS011;12324;48.146;11.502;2023-02-15T00:01:45;146.70;;;33.65;;
24173;SDS011;12324;48.146;11.502;2023-02-15T00:04:13;192.85;;;37.00;;
24173;SDS011;12324;48.146;11.502;2023-02-15T00:06:41;126.43;;;31.63;;
24173;SDS011;12324;48.146;11.502;2023-02-15T00:09:08;106.97;;;31.98;;
24173;SDS011;12324;48.146;11.502;2023-02-15T00:11:36;85.78;;;30.90;;
24173;SDS011;12324;48.146;11.502;2023-02-15T00:14:07;46.28;;;30.95;;
24173;SDS011;12324;48.146;11.502;2023-02-15T00:16:34;66.43;;;32.83;;
24173;SDS011;12324;48.146;11.502;2023-02-15T00:19:02;75.28;;;31.77;;
24173;SDS011;12324;48.146;11.502;2023-02-15T00:21:30;72.68;;;32.60;;
24173;SDS011;12324;48.146;11.502;2023-02-15T00:23:57;168.77;;;36.35;;
24173;SDS011;12324;48.146;11.502;2023-02-15T00:26:25;96.07;;;31.67;;
24173;SDS011;12324;48.146;11.502;2023-02-15T00:28:52;63.08;;;30.33;;
24173;SDS011;12324;48.146;11.502;2023-02-15T00:31:20;133.88;;;30.90;;
24173;SDS011;12324;48.146;11.502;2023-02-15T00:33:47;55.33;;;28.27;;
24173;SDS011;12324;48.146;11.502;2023-02-15T00:36:14;55.45;;;26.77;;
24173;SDS011;12324;48.146;11.502;2023-02-15T00:38:41;66.90;;;28.50;;
24173;SDS011;12324;48.146;11.502;2023-02-15T00:41:09;87.63;;;29.80;;
24173;SDS011;12324;48.146;11.502;2023-02-15T00:43:36;97.60;;;29.25;;
24173;SDS011;12324;48.146;11.502;2023-02-15T00:46:04;93.82;;;31.60;;
24173;SDS011;12324;48.146;11.502;2023-02-15T00:48:32;80.38;;;29.38;;
24173;SDS011;12324;48.146;11.502;2023-02-15T00:50:59;137.93;;;31.95;;
24173;SDS011;12324;48.146;11.502;2023-02-15T00:53:27;57.33;;;30.00;;
24173;SDS011;12324;48.146;11.502;2023-02-15T00:55:55;94.40;;;30.17;;
24173;SDS011;12324;48.146;11.502;2023-02-15T00:58:22;105.40;;;28.40;;
24173;SDS011;12324;48.146;11.502;2023-02-15T01:00:49;89.65;;;29.60;;
24173;SDS011;12324;48.146;11.502;2023-02-15T01:03:17;80.15;;;29.80;;
24173;SDS011;12324;48.146;11.502;2023-02-15T01:05:44;82.95;;;28.92;;
24173;SDS011;12324;48.146;11.502;2023-02-15T01:08:12;52.15;;;25.95;;
24173;SDS011;12324;48.146;11.502;2023-02-15T01:10:39;59.03;;;29.27;;
24173;SDS011;12324;48.146;11.502;2023-02-15T01:13:07;57.67;;;27.17;;
24173;SDS011;12324;48.146;11.502;2023-02-15T01:15:34;40.70;;;26.00;;
24173;SDS011;12324;48.146;11.502;2023-02-15T01:18:02;58.83;;;32.15;;
24173;SDS011;12324;48.146;11.502;2023-02-15T01:20:29;50.55;;;26.23;;
24173;SDS011;12324;48.146;11.502;2023-02-15T01:22:56;50.50;;;23.20;;
24173;SDS011;12324;48.146;11.502;2023-02-15T01:25:23;51.47;;;27.35;;
24173;SDS011;12324;48.146;11.502;2023-02-15T01:27:51;35.80;;;25.23;;
24173;SDS011;12324;48.146;11.502;2023-02-15T01:30:18;31.85;;;21.70;;
24173;SDS011;12324;48.146;11.502;2023-02-15T01:32:45;38.17;;;22.13;;
24173;SDS011;12324;48.146;11.502;2023-02-15T01:35:12;71.40;;;22.20;;
24173;SDS011;12324;48.146;11.502;2023-02-15T01:37:39;48.50;;;23.27;;
24173;SDS011;12324;48.146;11.502;2023-02-15T01:40:07;39.50;;;23.10;;
24173;SDS011;12324;48.146;11.502;2023-02-15T01:42:34;50.70;;;21.58;;
24173;SDS011;12324;48.146;11.502;2023-02-15T01:45:03;45.95;;;22.95;;
24173;SDS011;12324;48.146;11.502;2023-02-15T01:52:40;36.88;;;22.92;;
24173;SDS011;12324;48.146;11.502;2023-02-15T01:55:11;36.95;;;23.95;;
24173;SDS011;12324;48.146;11.502;2023-02-15T01:57:38;48.33;;;23.95;;
24173;SDS011;12324;48.146;11.502;2023-02-15T02:00:06;48.17;;;23.85;;
24173;SDS011;12324;48.146;11.502;2023-02-15T02:02:33;31.38;;;21.95;;
24173;SDS011;12324;48.146;11.502;2023-02-15T02:05:01;38.97;;;22.48;;
24173;SDS011;12324;48.146;11.502;2023-02-15T02:07:36;41.05;;;22.80;;
24173;SDS011;12324;48.146;11.502;2023-02-15T02:10:05;42.30;;;23.37;;
24173;SDS011;12324;48.146;11.502;2023-02-15T02:12:33;46.00;;;23.38;;
24173;SDS011;12324;48.146;11.502;2023-02-15T02:15:01;35.33;;;23.05;;
24173;SDS011;12324;48.146;11.502;2023-02-15T02:34:18;33.40;;;20.67;;
24173;SDS011;12324;48.146;11.502;2023-02-15T02:36:34;32.35;;;20.13;;
24173;SDS011;12324;48.146;11.502;2023-02-15T02:41:33;46.85;;;22.27;;
24173;SDS011;12324;48.146;11.502;2023-02-15T02:44:07;88.00;;;24.02;;
24173;SDS011;12324;48.146;11.502;2023-02-15T02:46:44;64.43;;;24.38;;
24173;SDS011;12324;48.146;11.502;2023-02-15T02:49:12;95.00;;;23.70;;
24173;SDS011;12324;48.146;11.502;2023-02-15T02:51:40;63.28;;;24.48;;
24173;SDS011;12324;48.146;11.502;2023-02-15T02:54:07;35.28;;;21.83;;
24173;SDS011;12324;48.146;11.502;2023-02-15T02:56:38;49.55;;;22.35;;
24173;SDS011;12324;48.146;11.502;2023-02-15T02:59:09;84.80;;;23.73;;
24173;SDS011;12324;48.146;11.502;2023-02-15T03:01:41;36.08;;;23.00;;
24173;SDS011;12324;48.146;11.502;2023-02-15T03:04:12;112.78;;;24.45;;
24173;SDS011;12324;48.146;11.502;2023-02-15T03:06:50;86.55;;;24.92;;
24173;SDS011;12324;48.146;11.502;2023-02-15T03:09:22;46.72;;;25.35;;
24173;SDS011;12324;48.146;11.502;2023-02-15T03:11:51;81.95;;;25.05;;
24173;SDS011;12324;48.146;11.502;2023-02-15T03:14:18;141.85;;;28.15;;
24173;SDS011;12324;48.146;11.502;2023-02-15T03:16:46;87.72;;;24.65;;
24173;SDS011;12324;48.146;11.502;2023-02-15T03:19:16;80.35;;;23.38;;
24173;SDS011;12324;48.146;11.502;2023-02-15T03:21:45;65.10;;;24.55;;
24173;SDS011;12324;48.146;11.502;2023-02-15T03:24:17;58.65;;;25.52;;
24173;SDS011;12324;48.146;11.502;2023-02-15T03:26:48;49.00;;;24.00;;
24173;SDS011;12324;48.146;11.502;2023-02-15T03:29:18;62.03;;;24.63;;
24173;SDS011;12324;48.146;11.502;2023-02-15T03:31:46;56.65;;;26.63;;
24173;SDS011;12324;48.146;11.502;2023-02-15T03:34:15;58.00;;;23.85;;
24173;SDS011;12324;48.146;11.502;2023-02-15T03:37:06;89.93;;;24.70;;
24173;SDS011;12324;48.146;11.502;2023-02-15T03:39:34;86.80;;;23.23;;
24173;SDS011;12324;48.146;11.502;2023-02-15T03:42:16;34.08;;;20.38;;
24173;SDS011;12324;48.146;11.502;2023-02-15T03:47:31;68.60;;;23.42;;
24173;SDS011;12324;48.146;11.502;2023-02-15T03:50:07;51.90;;;23.10;;
24173;SDS011;12324;48.146;11.502;2023-02-15T03:52:55;89.88;;;24.58;;
24173;SDS011;12324;48.146;11.502;2023-02-15T03:55:24;79.50;;;24.45;;
24173;SDS011;12324;48.146;11.502;2023-02-15T03:57:51;121.93;;;27.80;;
24173;SDS011;12324;48.146;11.502;2023-02-15T04:00:38;41.58;;;24.15;;
24173;SDS011;12324;48.146;11.502;2023-02-15T04:03:37;90.47;;;26.00;;
24173;SDS011;12324;48.146;11.502;2023-02-15T04:06:06;79.38;;;25.02;;
24173;SDS011;12324;48.146;11.502;2023-02-15T04:08:33;100.85;;;24.30;;
24173;SDS011;12324;48.146;11.502;2023-02-15T04:11:19;51.85;;;24.60;;
24173;SDS011;12324;48.146;11.502;2023-02-15T04:13:46;53.10;;;24.95;;
24173;SDS011;12324;48.146;11.502;2023-02-15T04:16:13;81.88;;;25.65;;
24173;SDS011;12324;48.146;11.502;2023-02-15T04:18:41;93.40;;;25.40;;
24173;SDS011;12324;48.146;11.502;2023-02-15T04:21:28;57.05;;;23.13;;
24173;SDS011;12324;48.146;11.502;2023-02-15T04:24:14;42.33;;;22.08;;
24173;SDS011;12324;48.146;11.502;2023-02-15T04:27:01;36.05;;;22.42;;
24173;SDS011;12324;48.146;11.502;2023-02-15T04:29:29;46.83;;;23.02;;
24173;SDS011;12324;48.146;11.502;2023-02-15T04:31:57;41.75;;;22.08;;
24173;SDS011;12324;48.146;11.502;2023-02-15T04:34:24;60.97;;;22.63;;
24173;SDS011;12324;48.146;11.502;2023-02-15T04:36:52;58.67;;;22.95;;
24173;SDS011;12324;48.146;11.502;2023-02-15T04:39:19;47.55;;;22.48;;
24173;SDS011;12324;48.146;11.502;2023-02-15T04:41:46;37.28;;;22.75;;
24173;SDS011;12324;48.146;11.502;2023-02-15T04:44:14;89.57;;;24.25;;
24173;SDS011;12324;48.146;11.502;2023-02-15T04:46:41;54.60;;;21.52;;
24173;SDS011;12324;48.146;11.502;2023-02-15T04:49:08;68.78;;;22.52;;
24173;SDS011;12324;48.146;11.502;2023-02-15T04:51:35;72.32;;;22.40;;
24173;SDS011;12324;48.146;11.502;2023-02-15T04:54:02;57.08;;;21.55;;
24173;SDS011;12324;48.146;11.502;2023-02-15T04:56:29;85.10;;;24.10;;
24173;SDS011;12324;48.146;11.502;2023-02-15T04:58:57;76.43;;;23.15;;
24173;SDS011;12324;48.146;11.502;2023-02-15T05:01:24;33.75;;;21.02;;
24173;SDS011;12324;48.146;11.502;2023-02-15T05:03:51;43.35;;;20.50;;
24173;SDS011;12324;48.146;11.502;2023-02-15T05:06:18;75.82;;;24.17;;
24173;SDS011;12324;48.146;11.502;2023-02-15T05:08:45;49.72;;;25.02;;
24173;SDS011;12324;48.146;11.502;2023-02-15T05:11:12;34.78;;;20.73;;
24173;SDS011;12324;48.146;11.502;2023-02-15T05:13:39;51.22;;;21.52;;
24173;SDS011;12324;48.146;11.502;2023-02-15T05:16:06;64.28;;;19.80;;
24173;SDS011;12324;48.146;11.502;2023-02-15T05:18:34;58.03;;;20.75;;
24173;SDS011;12324;48.146;11.502;2023-02-15T05:21:01;43.70;;;20.13;;
24173;SDS011;12324;48.146;11.502;2023-02-15T05:23:28;60.72;;;21.35;;
24173;SDS011;12324;48.146;11.502;2023-02-15T05:25:55;66.10;;;20.05;;
24173;SDS011;12324;48.146;11.502;2023-02-15T05:28:42;65.88;;;17.70;;
24173;SDS011;12324;48.146;11.502;2023-02-15T05:31:10;46.00;;;18.23;;
24173;SDS011;12324;48.146;11.502;2023-02-15T05:33:38;28.67;;;18.77;;
24173;SDS011;12324;48.146;11.502;2023-02-15T05:36:06;57.28;;;19.58;;
24173;SDS011;12324;48.146;11.502;2023-02-15T05:38:34;32.90;;;19.10;;
24173;SDS011;12324;48.146;11.502;2023-02-15T05:41:03;55.78;;;21.13;;
24173;SDS011;12324;48.146;11.502;2023-02-15T05:43:31;52.47;;;19.67;;
24173;SDS011;12324;48.146;11.502;2023-02-15T05:45:58;30.58;;;19.23;;
24173;SDS011;12324;48.146;11.502;2023-02-15T05:48:26;40.78;;;20.17;;
24173;SDS011;12324;48.146;11.502;2023-02-15T05:51:00;52.42;;;19.17;;
24173;SDS011;12324;48.146;11.502;2023-02-15T05:53:27;52.15;;;19.02;;
24173;SDS011;12324;48.146;11.502;2023-02-15T05:55:55;32.67;;;18.27;;
24173;SDS011;12324;48.146;11.502;2023-02-15T05:58:26;87.85;;;20.60;;
24173;SDS011;12324;48.146;11.502;2023-02-15T06:00:53;39.13;;;19.48;;
24173;SDS011;12324;48.146;11.502;2023-02-15T06:03:20;36.50;;;18.23;;
24173;SDS011;12324;48.146;11.502;2023-02-15T06:05:48;36.90;;;19.48;;
24173;SDS011;12324;48.146;11.502;2023-02-15T06:08:15;33.65;;;18.83;;
24173;SDS011;12324;48.146;11.502;2023-02-15T06:10:42;78.80;;;23.15;;
24173;SDS011;12324;48.146;11.502;2023-02-15T06:13:09;61.08;;;19.63;;
24173;SDS011;12324;48.146;11.502;2023-02-15T06:15:36;40.42;;;21.17;;
24173;SDS011;12324;48.146;11.502;2023-02-15T06:18:04;34.15;;;20.20;;
24173;SDS011;12324;48.146;11.502;2023-02-15T06:20:31;51.90;;;20.88;;
24173;SDS011;12324;48.146;11.502;2023-02-15T06:22:58;106.63;;;25.00;;
24173;SDS011;12324;48.146;11.502;2023-02-15T06:25:25;59.78;;;22.25;;
24173;SDS011;12324;48.146;11.502;2023-02-15T06:27:52;58.97;;;20.15;;
24173;SDS011;12324;48.146;11.502;2023-02-15T06:30:19;80.35;;;22.38;;
24173;SDS011;12324;48.146;11.502;2023-02-15T06:32:46;53.65;;;25.00;;
24173;SDS011;12324;48.146;11.502;2023-02-15T06:35:14;59.28;;;22.52;;
24173;SDS011;12324;48.146;11.502;2023-02-15T06:37:41;36.55;;;22.10;;
24173;SDS011;12324;48.146;11.502;2023-02-15T06:40:08;50.92;;;21.55;;
24173;SDS011;12324;48.146;11.502;2023-02-15T06:42:35;47.38;;;22.63;;
24173;SDS011;12324;48.146;11.502;2023-02-15T06:45:02;56.97;;;22.83;;
24173;SDS011;12324;48.146;11.502;2023-02-15T06:47:31;38.92;;;22.33;;
24173;SDS011;12324;48.146;11.502;2023-02-15T06:49:58;76.05;;;22.05;;
24173;SDS011;12324;48.146;11.502;2023-02-15T06:52:25;42.75;;;20.75;;
24173;SDS011;12324;48.146;11.502;2023-02-15T06:54:53;61.88;;;22.40;;
24173;SDS011;12324;48.146;11.502;2023-02-15T06:57:20;55.65;;;22.08;;
24173;SDS011;12324;48.146;11.502;2023-02-15T06:59:47;70.30;;;24.05;;
24173;SDS011;12324;48.146;11.502;2023-02-15T07:02:14;37.92;;;22.58;;
24173;SDS011;12324;48.146;11.502;2023-02-15T07:04:41;54.00;;;24.05;;
24173;SDS011;12324;48.146;11.502;2023-02-15T07:07:08;53.60;;;23.73;;
24173;SDS011;12324;48.146;11.502;2023-02-15T07:09:36;37.15;;;22.85;;
24173;SDS011;12324;48.146;11.502;2023-02-15T07:12:03;42.45;;;23.33;;
24173;SDS011;12324;48.146;11.502;2023-02-15T07:14:53;40.88;;;23.35;;
24173;SDS011;12324;48.146;11.502;2023-02-15T07:17:20;52.63;;;23.42;;
24173;SDS011;12324;48.146;11.502;2023-02-15T07:20:04;40.60;;;20.45;;
24173;SDS011;12324;48.146;11.502;2023-02-15T07:22:31;37.45;;;23.02;;
24173;SDS011;12324;48.146;11.502;2023-02-15T07:25:00;32.28;;;21.25;;
24173;SDS011;12324;48.146;11.502;2023-02-15T07:27:27;34.97;;;21.55;;
24173;SDS011;12324;48.146;11.502;2023-02-15T07:29:54;33.85;;;22.75;;
24173;SDS011;12324;48.146;11.502;2023-02-15T07:32:21;36.92;;;22.23;;
24173;SDS011;12324;48.146;11.502;2023-02-15T07:34:48;32.80;;;21.50;;
24173;SDS011;12324;48.146;11.502;2023-02-15T07:37:15;34.47;;;21.67;;
24173;SDS011;12324;48.146;11.502;2023-02-15T07:39:42;34.38;;;24.02;;
24173;SDS011;12324;48.146;11.502;2023-02-15T07:42:09;33.47;;;22.42;;
24173;SDS011;12324;48.146;11.502;2023-02-15T07:44:36;32.25;;;22.75;;
24173;SDS011;12324;48.146;11.502;2023-02-15T07:47:04;37.50;;;21.70;;
24173;SDS011;12324;48.146;11.502;2023-02-15T07:49:31;30.80;;;20.70;;
24173;SDS011;12324;48.146;11.502;2023-02-15T07:51:58;31.13;;;20.70;;
24173;SDS011;12324;48.146;11.502;2023-02-15T07:54:27;29.48;;;20.05;;
24173;SDS011;12324;48.146;11.502;2023-02-15T07:56:54;29.25;;;21.02;;
24173;SDS011;12324;48.146;11.502;2023-02-15T07:59:21;30.45;;;20.17;;
24173;SDS011;12324;48.146;11.502;2023-02-15T08:01:48;29.52;;;20.08;;
24173;SDS011;12324;48.146;11.502;2023-02-15T08:04:15;31.40;;;21.55;;
24173;SDS011;12324;48.146;11.502;2023-02-15T08:06:44;31.58;;;22.20;;
24173;SDS011;12324;48.146;11.502;2023-02-15T08:09:11;32.35;;;21.40;;
24173;SDS011;12324;48.146;11.502;2023-02-15T08:11:38;31.25;;;20.75;;
24173;SDS011;12324;48.146;11.502;2023-02-15T08:19:11;29.25;;;19.65;;
24173;SDS011;12324;48.146;11.502;2023-02-15T08:21:39;34.35;;;21.65;;
24173;SDS011;12324;48.146;11.502;2023-02-15T08:24:07;30.77;;;19.88;;
24173;SDS011;12324;48.146;11.502;2023-02-15T08:26:34;29.73;;;20.40;;
24173;SDS011;12324;48.146;11.502;2023-02-15T08:29:02;29.65;;;20.13;;
24173;SDS011;12324;48.146;11.502;2023-02-15T08:31:29;30.77;;;20.33;;
24173;SDS011;12324;48.146;11.502;2023-02-15T08:33:57;28.45;;;20.15;;
24173;SDS011;12324;48.146;11.502;2023-02-15T08:36:26;28.30;;;19.90;;
24173;SDS011;12324;48.146;11.502;2023-02-15T08:38:56;27.83;;;18.30;;
24173;SDS011;12324;48.146;11.502;2023-02-15T08:41:27;32.13;;;21.05;;
24173;SDS011;12324;48.146;11.502;2023-02-15T08:43:58;28.58;;;20.20;;
24173;SDS011;12324;48.146;11.502;2023-02-15T08:46:27;27.63;;;19.92;;
24173;SDS011;12324;48.146;11.502;2023-02-15T08:48:55;30.55;;;20.38;;
24173;SDS011;12324;48.146;11.502;2023-02-15T08:51:23;30.75;;;20.85;;
24173;SDS011;12324;48.146;11.502;2023-02-15T08:53:51;28.42;;;19.45;;
24173;SDS011;12324;48.146;11.502;2023-02-15T08:56:20;29.80;;;19.95;;
24173;SDS011;12324;48.146;11.502;2023-02-15T08:58:48;28.98;;;20.33;;
24173;SDS011;12324;48.146;11.502;2023-02-15T09:01:20;28.02;;;18.67;;
24173;SDS011;12324;48.146;11.502;2023-02-15T09:03:51;31.45;;;20.20;;
24173;SDS011;12324;48.146;11.502;2023-02-15T09:06:19;31.17;;;20.92;;
24173;SDS011;12324;48.146;11.502;2023-02-15T09:08:47;27.85;;;19.73;;
24173;SDS011;12324;48.146;11.502;2023-02-15T09:13:54;33.85;;;20.38;;
24173;SDS011;12324;48.146;11.502;2023-02-15T09:16:22;29.70;;;18.88;;
24173;SDS011;12324;48.146;11.502;2023-02-15T09:18:50;25.48;;;18.65;;
24173;SDS011;12324;48.146;11.502;2023-02-15T09:21:19;30.88;;;18.67;;
24173;SDS011;12324;48.146;11.502;2023-02-15T09:23:47;31.63;;;21.00;;
24173;SDS011;12324;48.146;11.502;2023-02-15T09:26:18;34.20;;;19.98;;
24173;SDS011;12324;48.146;11.502;2023-02-15T09:28:47;31.95;;;20.50;;
24173;SDS011;12324;48.146;11.502;2023-02-15T09:31:16;28.40;;;19.10;;
24173;SDS011;12324;48.146;11.502;2023-02-15T09:33:44;31.23;;;20.42;;
24173;SDS011;12324;48.146;11.502;2023-02-15T09:36:19;30.48;;;18.95;;
24173;SDS011;12324;48.146;11.502;2023-02-15T09:38:48;29.23;;;20.08;;
24173;SDS011;12324;48.146;11.502;2023-02-15T09:44:02;28.67;;;20.02;;
24173;SDS011;12324;48.146;11.502;2023-02-15T09:46:54;34.33;;;20.90;;
24173;SDS011;12324;48.146;11.502;2023-02-15T09:49:32;32.50;;;19.50;;
24173;SDS011;12324;48.146;11.502;2023-02-15T09:52:04;33.80;;;21.17;;
24173;SDS011;12324;48.146;11.502;2023-02-15T09:57:18;27.45;;;19.90;;
24173;SDS011;12324;48.146;11.502;2023-02-15T10:00:12;30.20;;;19.70;;
24173;SDS011;12324;48.146;11.502;2023-02-15T10:05:59;27.17;;;15.25;;
24173;SDS011;12324;48.146;11.502;2023-02-15T10:08:10;32.10;;;18.98;;
24173;SDS011;12324;48.146;11.502;2023-02-15T10:13:49;29.83;;;19.17;;
24173;SDS011;12324;48.146;11.502;2023-02-15T10:16:24;28.92;;;20.35;;
24173;SDS011;12324;48.146;11.502;2023-02-15T10:24:48;29.67;;;19.17;;
24173;SDS011;12324;48.146;11.502;2023-02-15T10:27:21;31.02;;;19.02;;
24173;SDS011;12324;48.146;11.502;2023-02-15T10:30:02;30.17;;;19.20;;
24173;SDS011;12324;48.146;11.502;2023-02-15T10:32:31;30.95;;;20.88;;
24173;SDS011;12324;48.146;11.502;2023-02-15T10:37:53;33.28;;;23.58;;
24173;SDS011;12324;48.146;11.502;2023-02-15T10:48:16;33.45;;;23.25;;
24173;SDS011;12324;48.146;11.502;2023-02-15T10:50:46;31.48;;;22.48;;
24173;SDS011;12324;48.146;11.502;2023-02-15T11:00:42;38.50;;;24.08;;
24173;SDS011;12324;48.146;11.502;2023-02-15T11:08:34;33.35;;;23.92;;
24173;SDS011;12324;48.146;11.502;2023-02-15T11:11:03;31.60;;;23.33;;
24173;SDS011;12324;48.146;11.502;2023-02-15T11:13:34;31.20;;;22.80;;
24173;SDS011;12324;48.146;11.502;2023-02-15T11:16:14;30.58;;;23.60;;
24173;SDS011;12324;48.146;11.502;2023-02-15T11:21:21;35.55;;;23.63;;
24173;SDS011;12324;48.146;11.502;2023-02-15T11:23:49;34.65;;;24.48;;
24173;SDS011;12324;48.146;11.502;2023-02-15T11:28:49;31.92;;;24.67;;
24173;SDS011;12324;48.146;11.502;2023-02-15T11:31:21;35.55;;;24.00;;
24173;SDS011;12324;48.146;11.502;2023-02-15T11:33:51;33.00;;;24.20;;
24173;SDS011;12324;48.146;11.502;2023-02-15T11:36:22;37.13;;;24.35;;
24173;SDS011;12324;48.146;11.502;2023-02-15T11:38:52;33.25;;;25.02;;
24173;SDS011;12324;48.146;11.502;2023-02-15T11:41:22;36.53;;;24.85;;
24173;SDS011;12324;48.146;11.502;2023-02-15T11:43:54;29.95;;;23.55;;
24173;SDS011;12324;48.146;11.502;2023-02-15T11:46:23;35.50;;;26.70;;
24173;SDS011;12324;48.146;11.502;2023-02-15T11:48:50;33.95;;;25.95;;
24173;SDS011;12324;48.146;11.502;2023-02-15T11:51:18;37.05;;;25.90;;
24173;SDS011;12324;48.146;11.502;2023-02-15T11:53:48;34.70;;;24.77;;
24173;SDS011;12324;48.146;11.502;2023-02-15T11:56:17;36.08;;;26.77;;
24173;SDS011;12324;48.146;11.502;2023-02-15T11:58:45;39.33;;;24.75;;
24173;SDS011;12324;48.146;11.502;2023-02-15T12:03:48;27.85;;;19.25;;
24173;SDS011;12324;48.146;11.502;2023-02-15T12:06:32;34.35;;;26.75;;
24173;SDS011;12324;48.146;11.502;2023-02-15T12:09:14;33.73;;;26.20;;
24173;SDS011;12324;48.146;11.502;2023-02-15T12:11:42;35.25;;;24.55;;
24173;SDS011;12324;48.146;11.502;2023-02-15T12:14:10;35.85;;;26.63;;
24173;SDS011;12324;48.146;11.502;2023-02-15T12:16:47;35.60;;;26.83;;
24173;SDS011;12324;48.146;11.502;2023-02-15T12:19:27;34.35;;;25.40;;
24173;SDS011;12324;48.146;11.502;2023-02-15T12:21:55;37.15;;;25.00;;
24173;SDS011;12324;48.146;11.502;2023-02-15T12:24:44;36.38;;;25.98;;
24173;SDS011;12324;48.146;11.502;2023-02-15T12:27:17;33.88;;;25.50;;
24173;SDS011;12324;48.146;11.502;2023-02-15T12:29:49;32.60;;;24.23;;
24173;SDS011;12324;48.146;11.502;2023-02-15T12:32:17;35.08;;;24.90;;
24173;SDS011;12324;48.146;11.502;2023-02-15T12:34:45;34.38;;;25.00;;
24173;SDS011;12324;48.146;11.502;2023-02-15T12:37:17;33.80;;;24.77;;
24173;SDS011;12324;48.146;11.502;2023-02-15T12:39:51;35.25;;;24.92;;
24173;SDS011;12324;48.146;11.502;2023-02-15T12:42:19;35.35;;;24.92;;
24173;SDS011;12324;48.146;11.502;2023-02-15T12:44:58;38.17;;;25.15;;
24173;SDS011;12324;48.146;11.502;2023-02-15T12:47:25;33.25;;;25.02;;
24173;SDS011;12324;48.146;11.502;2023-02-15T12:50:14;40.38;;;25.33;;
24173;SDS011;12324;48.146;11.502;2023-02-15T12:52:48;47.70;;;25.17;;
24173;SDS011;12324;48.146;11.502;2023-02-15T12:55:20;35.40;;;25.77;;
24173;SDS011;12324;48.146;11.502;2023-02-15T12:57:47;32.17;;;24.42;;
24173;SDS011;12324;48.146;11.502;2023-02-15T13:02:47;37.85;;;25.50;;
24173;SDS011;12324;48.146;11.502;2023-02-15T13:05:19;37.53;;;24.33;;
24173;SDS011;12324;48.146;11.502;2023-02-15T13:07:50;34.30;;;24.92;;
24173;SDS011;12324;48.146;11.502;2023-02-15T13:12:54;34.50;;;24.40;;
24173;SDS011;12324;48.146;11.502;2023-02-15T13:15:24;35.13;;;24.40;;
24173;SDS011;12324;48.146;11.502;2023-02-15T13:17:52;39.38;;;24.38;;
24173;SDS011;12324;48.146;11.502;2023-02-15T13:20:20;32.13;;;24.27;;
24173;SDS011;12324;48.146;11.502;2023-02-15T13:22:50;44.75;;;25.23;;
24173;SDS011;12324;48.146;11.502;2023-02-15T13:27:46;37.20;;;24.02;;
24173;SDS011;12324;48.146;11.502;2023-02-15T13:32:54;29.38;;;21.80;;
24173;SDS011;12324;48.146;11.502;2023-02-15T13:35:22;33.35;;;20.20;;
24173;SDS011;12324;48.146;11.502;2023-02-15T13:53:38;33.35;;;20.35;;
24173;SDS011;12324;48.146;11.502;2023-02-15T13:56:21;30.60;;;20.23;;
24173;SDS011;12324;48.146;11.502;2023-02-15T13:58:55;34.17;;;19.88;;
24173;SDS011;12324;48.146;11.502;2023-02-15T14:04:17;27.85;;;19.95;;
24173;SDS011;12324;48.146;11.502;2023-02-15T14:24:47;24.65;;;19.20;;
24173;SDS011;12324;48.146;11.502;2023-02-15T14:27:27;29.45;;;18.67;;
24173;SDS011;12324;48.146;11.502;2023-02-15T14:30:00;24.45;;;16.63;;
24173;SDS011;12324;48.146;11.502;2023-02-15T14:32:33;28.63;;;19.05;;
24173;SDS011;12324;48.146;11.502;2023-02-15T14:35:03;27.75;;;18.65;;
24173;SDS011;12324;48.146;11.502;2023-02-15T14:40:03;26.05;;;18.15;;
24173;SDS011;12324;48.146;11.502;2023-02-15T14:42:53;22.80;;;17.05;;
24173;SDS011;12324;48.146;11.502;2023-02-15T14:45:35;27.83;;;17.75;;
24173;SDS011;12324;48.146;11.502;2023-02-15T14:48:11;27.95;;;17.40;;
24173;SDS011;12324;48.146;11.502;2023-02-15T14:50:40;22.52;;;16.15;;
24173;SDS011;12324;48.146;11.502;2023-02-15T14:53:24;21.35;;;15.73;;
24173;SDS011;12324;48.146;11.502;2023-02-15T14:58:35;23.45;;;17.27;;
24173;SDS011;12324;48.146;11.502;2023-02-15T15:01:06;27.65;;;17.20;;
24173;SDS011;12324;48.146;11.502;2023-02-15T15:03:34;28.80;;;17.30;;
24173;SDS011;12324;48.146;11.502;2023-02-15T15:06:03;26.40;;;17.08;;
24173;SDS011;12324;48.146;11.502;2023-02-15T15:08:33;27.70;;;17.52;;
24173;SDS011;12324;48.146;11.502;2023-02-15T15:14:09;25.80;;;18.05;;
24173;SDS011;12324;48.146;11.502;2023-02-15T15:19:04;24.77;;;16.40;;
24173;SDS011;12324;48.146;11.502;2023-02-15T15:21:51;24.42;;;15.98;;
24173;SDS011;12324;48.146;11.502;2023-02-15T15:29:50;32.65;;;18.25;;
24173;SDS011;12324;48.146;11.502;2023-02-15T15:32:18;24.98;;;17.75;;
24173;SDS011;12324;48.146;11.502;2023-02-15T15:35:05;24.60;;;17.20;;
24173;SDS011;12324;48.146;11.502;2023-02-15T15:37:51;29.55;;;19.58;;
24173;SDS011;12324;48.146;11.502;2023-02-15T15:40:40;27.17;;;17.80;;
24173;SDS011;12324;48.146;11.502;2023-02-15T15:48:30;30.50;;;18.27;;
24173;SDS011;12324;48.146;11.502;2023-02-15T15:51:00;25.92;;;17.80;;
24173;SDS011;12324;48.146;11.502;2023-02-15T15:53:29;29.88;;;18.70;;
24173;SDS011;12324;48.146;11.502;2023-02-15T15:56:00;24.58;;;18.75;;
24173;SDS011;12324;48.146;11.502;2023-02-15T15:58:30;26.73;;;19.45;;
24173;SDS011;12324;48.146;11.502;2023-02-15T16:01:08;30.50;;;19.70;;
24173;SDS011;12324;48.146;11.502;2023-02-15T16:03:37;33.58;;;20.17;;
24173;SDS011;12324;48.146;11.502;2023-02-15T16:06:05;30.25;;;21.52;;
24173;SDS011;12324;48.146;11.502;2023-02-15T16:08:33;27.65;;;20.65;;
24173;SDS011;12324;48.146;11.502;2023-02-15T16:11:11;29.95;;;20.83;;
24173;SDS011;12324;48.146;11.502;2023-02-15T16:13:40;33.53;;;22.33;;
24173;SDS011;12324;48.146;11.502;2023-02-15T16:16:08;30.42;;;21.70;;
24173;SDS011;12324;48.146;11.502;2023-02-15T16:18:36;28.60;;;21.05;;
24173;SDS011;12324;48.146;11.502;2023-02-15T16:21:16;31.85;;;22.40;;
24173;SDS011;12324;48.146;11.502;2023-02-15T16:23:55;30.25;;;22.52;;
24173;SDS011;12324;48.146;11.502;2023-02-15T16:26:35;34.65;;;23.65;;
24173;SDS011;12324;48.146;11.502;2023-02-15T16:29:17;32.25;;;24.15;;
24173;SDS011;12324;48.146;11.502;2023-02-15T16:31:58;33.40;;;23.02;;
24173;SDS011;12324;48.146;11.502;2023-02-15T16:34:26;33.60;;;25.38;;
24173;SDS011;12324;48.146;11.502;2023-02-15T16:39:40;33.85;;;25.77;;
24173;SDS011;12324;48.146;11.502;2023-02-15T16:42:07;40.60;;;27.23;;
24173;SDS011;12324;48.146;11.502;2023-02-15T16:44:35;42.33;;;27.95;;
24173;SDS011;12324;48.146;11.502;2023-02-15T16:47:02;40.28;;;28.02;;
24173;SDS011;12324;48.146;11.502;2023-02-15T16:49:29;39.25;;;29.27;;
24173;SDS011;12324;48.146;11.502;2023-02-15T16:52:02;38.40;;;27.05;;
24173;SDS011;12324;48.146;11.502;2023-02-15T16:54:32;40.90;;;29.77;;
24173;SDS011;12324;48.146;11.502;2023-02-15T16:57:01;45.42;;;31.08;;
24173;SDS011;12324;48.146;11.502;2023-02-15T16:59:35;45.03;;;33.00;;
24173;SDS011;12324;48.146;11.502;2023-02-15T17:02:06;47.17;;;35.42;;